createdAt,value
2019-05-16T00:00:51.455Z,787.02
2019-05-16T00:01:51.465Z,787.00
2019-05-16T00:02:51.452Z,786.98
2019-05-16T00:03:51.423Z,787.00
2019-05-16T00:04:51.439Z,786.99
2019-05-16T00:05:54.456Z,787.01
2019-05-16T00:06:54.061Z,786.99
2019-05-16T00:07:51.438Z,787.02
2019-05-16T00:08:51.384Z,787.02
2019-05-16T00:09:51.375Z,787.07
2019-05-16T00:10:51.370Z,787.04
2019-05-16T00:11:51.338Z,787.08
2019-05-16T00:12:51.345Z,787.07
2019-05-16T00:13:51.324Z,787.10
2019-05-16T00:14:51.303Z,787.12
2019-05-16T00:15:51.294Z,787.12
2019-05-16T00:16:51.282Z,787.14
2019-05-16T00:17:51.309Z,787.11
2019-05-16T00:18:51.261Z,787.16
2019-05-16T00:19:51.259Z,787.18
2019-05-16T00:20:51.253Z,787.19
2019-05-16T00:21:51.245Z,787.22
2019-05-16T00:22:51.244Z,787.24
2019-05-16T00:23:51.195Z,787.28
2019-05-16T00:24:51.207Z,787.28
2019-05-16T00:25:51.190Z,787.30
2019-05-16T00:26:51.166Z,787.31
2019-05-16T00:27:51.185Z,787.33
2019-05-16T00:28:51.169Z,787.33
2019-05-16T00:29:51.147Z,787.33
2019-05-16T00:30:51.125Z,787.35
2019-05-16T00:31:51.128Z,787.34
2019-05-16T00:32:51.140Z,787.40
2019-05-16T00:33:51.142Z,787.40
2019-05-16T00:34:51.076Z,787.38
2019-05-16T00:36:02.161Z,787.44
2019-05-16T00:36:51.064Z,787.43
2019-05-16T00:37:51.059Z,787.43
2019-05-16T00:38:51.050Z,787.42
2019-05-16T00:39:51.031Z,787.42
2019-05-16T00:40:51.014Z,787.43
2019-05-16T00:41:51.001Z,787.39
2019-05-16T00:42:51.012Z,787.42
2019-05-16T00:43:50.987Z,787.41
2019-05-16T00:44:50.966Z,787.41
2019-05-16T00:45:50.969Z,787.44
2019-05-16T00:46:50.956Z,787.39
2019-05-16T00:47:50.957Z,787.42
2019-05-16T00:48:50.928Z,787.43
2019-05-16T00:49:50.917Z,787.41
2019-05-16T00:50:50.901Z,787.43
2019-05-16T00:51:50.899Z,787.47
2019-05-16T00:52:50.899Z,787.49
2019-05-16T00:53:50.890Z,787.48
2019-05-16T00:54:50.870Z,787.46
2019-05-16T00:55:50.926Z,787.49
2019-05-16T00:56:50.855Z,787.52
2019-05-16T00:57:50.867Z,787.55
2019-05-16T00:58:50.825Z,787.55
2019-05-16T00:59:50.827Z,787.57
2019-05-16T01:00:50.811Z,787.58
2019-05-16T01:01:50.791Z,787.61
2019-05-16T01:04:00.000Z,787.80
2019-05-16T01:05:00.957Z,787.68
2019-05-16T01:06:00.931Z,787.65
2019-05-16T01:07:01.736Z,787.68
2019-05-16T01:08:00.948Z,787.66
2019-05-16T01:09:00.941Z,787.73
2019-05-16T01:10:00.918Z,787.75
2019-05-16T01:11:00.887Z,787.78
2019-05-16T01:12:00.880Z,787.76
2019-05-16T01:13:00.906Z,787.80
2019-05-16T01:14:00.868Z,787.84
2019-05-16T01:15:00.847Z,787.86
2019-05-16T01:16:00.831Z,787.84
2019-05-16T01:17:00.832Z,787.87
2019-05-16T01:18:00.824Z,787.90
2019-05-16T01:19:00.795Z,787.89
2019-05-16T01:20:00.777Z,787.91
2019-05-16T01:21:00.768Z,787.93
2019-05-16T01:22:00.765Z,787.89
2019-05-16T01:23:00.783Z,787.89
2019-05-16T01:24:00.738Z,787.87
2019-05-16T01:25:00.739Z,787.86
2019-05-16T01:26:00.718Z,787.90
2019-05-16T01:27:00.711Z,787.88
2019-05-16T01:28:00.715Z,787.89
2019-05-16T01:29:00.683Z,787.85
2019-05-16T01:30:00.673Z,787.85
2019-05-16T01:31:00.658Z,787.85
2019-05-16T01:32:00.644Z,787.87
2019-05-16T01:33:00.666Z,787.91
2019-05-16T01:34:00.625Z,787.87
2019-05-16T01:35:00.612Z,787.82
2019-05-16T01:36:00.610Z,787.81
2019-05-16T01:37:00.613Z,787.81
2019-05-16T01:38:00.599Z,787.84
2019-05-16T01:39:00.595Z,787.87
2019-05-16T01:40:00.569Z,787.89
2019-05-16T01:41:00.554Z,787.88
2019-05-16T01:42:00.544Z,787.88
2019-05-16T01:43:00.554Z,787.87
2019-05-16T01:44:00.549Z,787.87
2019-05-16T01:45:00.503Z,787.85
2019-05-16T01:46:00.514Z,787.81
2019-05-16T01:47:00.488Z,787.89
2019-05-16T01:48:00.472Z,787.88
2019-05-16T01:49:00.479Z,787.86
2019-05-16T01:50:00.457Z,787.86
2019-05-16T01:51:00.452Z,787.84
2019-05-16T01:52:00.433Z,787.83
2019-05-16T01:53:00.442Z,787.87
2019-05-16T01:54:00.428Z,787.90
2019-05-16T01:55:00.392Z,787.88
2019-05-16T01:56:00.380Z,787.88
2019-05-16T01:57:00.392Z,787.86
2019-05-16T01:58:00.373Z,787.86
2019-05-16T01:59:00.363Z,787.87
2019-05-16T02:00:00.361Z,787.91
2019-05-16T02:01:11.615Z,787.89
2019-05-16T02:02:00.893Z,787.87
2019-05-16T02:03:00.331Z,787.89
2019-05-16T02:04:00.314Z,787.89
2019-05-16T02:05:00.291Z,787.87
2019-05-16T02:06:00.276Z,787.89
2019-05-16T02:07:00.267Z,787.93
2019-05-16T02:08:00.273Z,787.93
2019-05-16T02:09:00.259Z,787.91
2019-05-16T02:10:00.256Z,787.93
2019-05-16T02:11:00.219Z,787.95
2019-05-16T02:12:00.228Z,787.93
2019-05-16T02:13:00.199Z,787.95
2019-05-16T02:14:00.223Z,787.97
2019-05-16T02:15:00.177Z,787.96
2019-05-16T02:16:00.170Z,787.99
2019-05-16T02:17:00.156Z,788.01
2019-05-16T02:18:00.154Z,787.98
2019-05-16T02:19:00.165Z,787.96
2019-05-16T02:20:00.718Z,787.99
2019-05-16T02:21:01.414Z,788.00
2019-05-16T02:22:00.115Z,787.99
2019-05-16T02:23:00.097Z,788.02
2019-05-16T02:24:02.009Z,787.98
2019-05-16T02:25:00.084Z,788.00
2019-05-16T02:26:00.076Z,788.01
2019-05-16T02:27:00.070Z,788.05
2019-05-16T02:28:00.045Z,788.04
2019-05-16T02:29:00.866Z,788.02
2019-05-16T02:30:00.122Z,788.02
2019-05-16T02:31:01.219Z,788.04
2019-05-16T02:32:01.903Z,788.04
2019-05-16T02:33:01.000Z,788.06
2019-05-16T02:34:01.167Z,788.06
2019-05-16T02:35:01.117Z,788.03
2019-05-16T02:36:01.761Z,788.06
2019-05-16T02:37:18.505Z,788.03
2019-05-16T02:38:01.037Z,788.03
2019-05-16T02:39:02.003Z,788.03
2019-05-16T02:40:01.335Z,788.00
2019-05-16T02:41:03.112Z,788.03
2019-05-16T02:42:01.036Z,788.04
2019-05-16T02:43:01.586Z,788.03
2019-05-16T02:44:01.170Z,788.02
2019-05-16T02:45:02.454Z,788.06
2019-05-16T02:46:01.176Z,788.03
2019-05-16T02:47:01.557Z,788.01
2019-05-16T02:48:01.257Z,787.99
2019-05-16T02:49:00.841Z,788.03
2019-05-16T02:50:01.166Z,788.08
2019-05-16T02:51:01.822Z,788.11
2019-05-16T02:52:01.443Z,788.10
2019-05-16T02:53:01.474Z,788.07
2019-05-16T02:54:01.360Z,788.15
2019-05-16T02:55:00.804Z,788.18
2019-05-16T02:56:01.412Z,788.17
2019-05-16T02:57:01.367Z,788.20
2019-05-16T02:58:00.905Z,788.24
2019-05-16T02:59:01.646Z,788.21
2019-05-16T03:00:01.692Z,788.19
2019-05-16T03:01:01.977Z,788.15
2019-05-16T03:02:00.917Z,788.12
2019-05-16T03:03:01.131Z,788.12
2019-05-16T03:05:11.956Z,788.28
2019-05-16T03:06:11.205Z,788.16
2019-05-16T03:07:13.406Z,788.13
2019-05-16T03:08:12.127Z,788.13
2019-05-16T03:09:11.287Z,788.14
2019-05-16T03:10:11.073Z,788.15
2019-05-16T03:11:11.841Z,788.14
2019-05-16T03:12:10.758Z,788.13
2019-05-16T03:13:11.135Z,788.16
2019-05-16T03:14:11.193Z,788.15
2019-05-16T03:15:10.981Z,788.18
2019-05-16T03:16:11.695Z,788.16
2019-05-16T03:17:11.399Z,788.14
2019-05-16T03:18:11.566Z,788.12
2019-05-16T03:19:11.335Z,788.15
2019-05-16T03:20:10.815Z,788.15
2019-05-16T03:21:11.148Z,788.15
2019-05-16T03:22:11.662Z,788.12
2019-05-16T03:23:11.298Z,788.18
2019-05-16T03:24:11.218Z,788.16
2019-05-16T03:25:11.445Z,788.16
2019-05-16T03:26:11.681Z,788.18
2019-05-16T03:27:10.866Z,788.22
2019-05-16T03:28:11.146Z,788.20
2019-05-16T03:29:11.338Z,788.19
2019-05-16T03:30:15.233Z,788.19
2019-05-16T03:31:14.522Z,788.21
2019-05-16T03:32:13.870Z,788.25
2019-05-16T03:33:19.069Z,788.26
2019-05-16T03:34:14.948Z,788.28
2019-05-16T03:35:15.357Z,788.28
2019-05-16T03:36:14.732Z,788.31
2019-05-16T03:37:14.446Z,788.34
2019-05-16T03:38:12.083Z,788.28
2019-05-16T03:39:10.691Z,788.31
2019-05-16T03:40:11.055Z,788.33
2019-05-16T03:41:11.508Z,788.33
2019-05-16T03:42:12.459Z,788.37
2019-05-16T03:43:11.684Z,788.34
2019-05-16T03:44:11.245Z,788.39
2019-05-16T03:45:10.720Z,788.36
2019-05-16T03:46:11.729Z,788.39
2019-05-16T03:47:11.271Z,788.40
2019-05-16T03:48:12.013Z,788.43
2019-05-16T03:49:11.371Z,788.43
2019-05-16T03:50:11.072Z,788.38
2019-05-16T03:51:11.363Z,788.35
2019-05-16T03:52:11.366Z,788.33
2019-05-16T03:53:11.631Z,788.31
2019-05-16T03:54:12.451Z,788.34
2019-05-16T03:55:11.056Z,788.37
2019-05-16T03:56:11.053Z,788.37
2019-05-16T03:57:11.560Z,788.39
2019-05-16T03:58:11.767Z,788.34
2019-05-16T03:59:10.958Z,788.33
2019-05-16T04:00:11.810Z,788.32
2019-05-16T04:01:11.204Z,788.27
2019-05-16T04:02:10.793Z,788.29
2019-05-16T04:03:11.675Z,788.33
2019-05-16T04:04:11.724Z,788.30
2019-05-16T04:05:11.171Z,788.33
2019-05-16T04:06:11.935Z,788.32
2019-05-16T04:07:11.006Z,788.33
2019-05-16T04:08:18.773Z,788.35
2019-05-16T04:09:12.259Z,788.30
2019-05-16T04:10:10.994Z,788.27
2019-05-16T04:11:11.699Z,788.20
2019-05-16T04:12:10.782Z,788.21
2019-05-16T04:13:11.459Z,788.24
2019-05-16T04:14:10.806Z,788.27
2019-05-16T04:15:11.276Z,788.31
2019-05-16T04:16:11.817Z,788.31
2019-05-16T04:17:10.909Z,788.35
2019-05-16T04:18:11.131Z,788.34
2019-05-16T04:19:11.482Z,788.37
2019-05-16T04:20:11.570Z,788.35
2019-05-16T04:21:11.759Z,788.34
2019-05-16T04:22:10.469Z,788.40
2019-05-16T04:23:11.188Z,788.39
2019-05-16T04:24:12.191Z,788.43
2019-05-16T04:25:11.405Z,788.42
2019-05-16T04:26:11.267Z,788.45
2019-05-16T04:27:12.008Z,788.46
2019-05-16T04:28:11.457Z,788.44
2019-05-16T04:29:11.774Z,788.39
2019-05-16T04:30:11.758Z,788.41
2019-05-16T04:31:10.906Z,788.36
2019-05-16T04:32:11.002Z,788.39
2019-05-16T04:33:10.911Z,788.35
2019-05-16T04:34:11.737Z,788.40
2019-05-16T04:35:11.314Z,788.41
2019-05-16T04:36:10.961Z,788.43
2019-05-16T04:37:11.453Z,788.40
2019-05-16T04:38:11.349Z,788.41
2019-05-16T04:39:11.838Z,788.41
2019-05-16T04:40:11.831Z,788.44
2019-05-16T04:41:11.533Z,788.41
2019-05-16T04:42:11.020Z,788.39
2019-05-16T04:43:11.323Z,788.41
2019-05-16T04:44:11.788Z,788.43
2019-05-16T04:45:11.861Z,788.37
2019-05-16T04:46:11.519Z,788.39
2019-05-16T04:47:10.994Z,788.36
2019-05-16T04:48:11.180Z,788.37
2019-05-16T04:49:11.265Z,788.36
2019-05-16T04:50:11.541Z,788.33
2019-05-16T04:51:10.571Z,788.39
2019-05-16T04:52:11.217Z,788.36
2019-05-16T04:53:11.364Z,788.39
2019-05-16T04:54:11.410Z,788.38
2019-05-16T04:55:11.837Z,788.36
2019-05-16T04:56:11.037Z,788.33
2019-05-16T04:57:11.746Z,788.28
2019-05-16T04:58:10.665Z,788.23
2019-05-16T04:59:15.627Z,788.19
2019-05-16T05:00:11.301Z,788.15
2019-05-16T05:01:11.161Z,788.13
2019-05-16T05:02:11.934Z,788.15
2019-05-16T05:03:11.715Z,788.14
2019-05-16T05:04:11.777Z,788.10
2019-05-16T05:06:40.569Z,788.20
2019-05-16T05:07:40.816Z,788.03
2019-05-16T05:08:50.488Z,788.02
2019-05-16T05:09:41.073Z,787.97
2019-05-16T05:10:40.797Z,788.03
2019-05-16T05:11:41.246Z,788.02
2019-05-16T05:12:41.129Z,787.94
2019-05-16T05:13:41.235Z,787.91
2019-05-16T05:14:41.582Z,787.87
2019-05-16T05:15:40.550Z,787.85
2019-05-16T05:16:41.420Z,787.86
2019-05-16T05:17:41.409Z,787.83
2019-05-16T05:18:41.024Z,787.76
2019-05-16T05:19:41.476Z,787.70
2019-05-16T05:20:41.129Z,787.62
2019-05-16T05:21:41.078Z,787.60
2019-05-16T05:22:40.463Z,787.58
2019-05-16T05:23:40.786Z,787.60
2019-05-16T05:24:40.736Z,787.60
2019-05-16T05:25:40.608Z,787.64
2019-05-16T05:26:41.425Z,787.68
2019-05-16T05:27:41.332Z,787.70
2019-05-16T05:28:40.440Z,787.64
2019-05-16T05:29:40.393Z,787.56
2019-05-16T05:30:40.807Z,787.53
2019-05-16T05:31:44.400Z,787.55
2019-05-16T05:32:41.296Z,787.44
2019-05-16T05:33:41.705Z,787.36
2019-05-16T05:34:40.337Z,787.24
2019-05-16T05:35:40.851Z,787.22
2019-05-16T05:36:41.017Z,787.34
2019-05-16T05:37:40.997Z,787.36
2019-05-16T05:38:40.390Z,787.29
2019-05-16T05:39:40.274Z,787.19
2019-05-16T05:40:40.555Z,787.09
2019-05-16T05:41:40.256Z,786.98
2019-05-16T05:42:40.257Z,786.82
2019-05-16T05:43:40.252Z,786.70
2019-05-16T05:44:40.274Z,786.60
2019-05-16T05:45:40.263Z,786.47
2019-05-16T05:46:40.303Z,786.55
2019-05-16T05:47:40.572Z,786.54
2019-05-16T05:48:41.067Z,786.56
2019-05-16T05:49:40.514Z,786.59
2019-05-16T05:50:40.221Z,786.55
2019-05-16T05:51:40.659Z,786.50
2019-05-16T05:52:41.229Z,786.66
2019-05-16T05:53:40.281Z,786.67
2019-05-16T05:54:40.744Z,786.75
2019-05-16T05:55:40.579Z,786.91
2019-05-16T05:56:40.116Z,787.04
2019-05-16T05:57:40.645Z,787.14
2019-05-16T05:58:40.725Z,787.17
2019-05-16T05:59:40.545Z,787.35
2019-05-16T06:00:40.621Z,787.36
2019-05-16T06:01:40.815Z,787.21
2019-05-16T06:02:40.458Z,787.16
2019-05-16T06:03:40.023Z,787.13
2019-05-16T06:04:40.004Z,787.03
2019-05-16T06:05:41.236Z,787.05
2019-05-16T06:06:42.773Z,787.09
2019-05-16T06:07:40.611Z,787.02
2019-05-16T06:08:40.961Z,787.00
2019-05-16T06:09:52.418Z,787.03
2019-05-16T06:10:40.581Z,787.00
2019-05-16T06:11:40.605Z,786.97
2019-05-16T06:12:40.778Z,786.97
2019-05-16T06:13:40.594Z,786.83
2019-05-16T06:14:41.795Z,786.79
2019-05-16T06:15:40.071Z,786.77
2019-05-16T06:16:40.351Z,786.79
2019-05-16T06:17:40.228Z,786.75
2019-05-16T06:18:39.867Z,786.64
2019-05-16T06:19:40.226Z,786.52
2019-05-16T06:20:40.154Z,786.42
2019-05-16T06:21:44.437Z,786.36
2019-05-16T06:22:40.318Z,786.35
2019-05-16T06:23:40.297Z,786.41
2019-05-16T06:24:40.023Z,786.51
2019-05-16T06:25:40.578Z,786.47
2019-05-16T06:26:39.869Z,786.46
2019-05-16T06:27:40.723Z,786.48
2019-05-16T06:28:41.338Z,786.51
2019-05-16T06:29:40.249Z,786.54
2019-05-16T06:30:40.862Z,786.53
2019-05-16T06:31:40.652Z,786.51
2019-05-16T06:32:39.724Z,786.53
2019-05-16T06:33:41.139Z,786.50
2019-05-16T06:34:40.415Z,786.37
2019-05-16T06:35:40.223Z,786.34
2019-05-16T06:36:40.101Z,786.38
2019-05-16T06:37:40.704Z,786.44
2019-05-16T06:38:40.538Z,786.45
2019-05-16T06:39:45.069Z,786.50
2019-05-16T06:40:40.194Z,786.42
2019-05-16T06:41:39.800Z,786.45
2019-05-16T06:42:40.307Z,786.44
2019-05-16T06:43:40.050Z,786.53
2019-05-16T06:44:40.243Z,786.57
2019-05-16T06:45:40.231Z,786.50
2019-05-16T06:46:56.686Z,786.59
2019-05-16T06:47:39.879Z,786.63
2019-05-16T06:48:39.959Z,786.63
2019-05-16T06:49:40.301Z,786.70
2019-05-16T06:50:40.214Z,786.80
2019-05-16T06:51:39.899Z,786.76
2019-05-16T06:54:29.978Z,787.07
2019-05-16T06:55:30.763Z,786.78
2019-05-16T06:56:31.010Z,786.59
2019-05-16T06:57:30.674Z,786.50
2019-05-16T06:58:30.634Z,786.58
2019-05-16T06:59:30.807Z,786.50
2019-05-16T07:00:30.608Z,786.42
2019-05-16T07:01:30.673Z,786.40
2019-05-16T07:02:34.334Z,786.37
2019-05-16T07:03:30.973Z,786.38
2019-05-16T07:04:30.646Z,786.26
2019-05-16T07:05:30.556Z,786.16
2019-05-16T07:06:50.379Z,786.01
2019-05-16T07:07:30.883Z,786.06
2019-05-16T07:08:31.145Z,786.21
2019-05-16T07:09:30.509Z,786.11
2019-05-16T07:10:30.709Z,785.97
2019-05-16T07:11:30.724Z,785.87
2019-05-16T07:12:33.765Z,785.96
2019-05-16T07:13:30.610Z,785.98
2019-05-16T07:14:34.192Z,786.11
2019-05-16T07:15:30.535Z,786.02
2019-05-16T07:16:31.052Z,785.88
2019-05-16T07:17:30.724Z,785.68
2019-05-16T07:18:31.102Z,785.78
2019-05-16T07:19:35.090Z,785.89
2019-05-16T07:20:30.377Z,785.88
2019-05-16T07:21:31.242Z,785.86
2019-05-16T07:22:31.243Z,785.80
2019-05-16T07:23:30.357Z,786.07
2019-05-16T07:24:30.698Z,786.15
2019-05-16T07:25:30.405Z,786.13
2019-05-16T07:26:31.117Z,786.19
2019-05-16T07:27:30.899Z,786.37
2019-05-16T07:28:30.344Z,786.36
2019-05-16T07:29:30.920Z,786.27
2019-05-16T07:30:30.412Z,786.25
2019-05-16T07:31:30.258Z,786.18
2019-05-16T07:32:30.352Z,785.96
2019-05-16T07:33:31.198Z,785.83
2019-05-16T07:34:31.207Z,785.75
2019-05-16T07:35:30.770Z,785.53
2019-05-16T07:36:31.364Z,785.38
2019-05-16T07:37:31.597Z,785.28
2019-05-16T07:38:30.904Z,785.18
2019-05-16T07:39:30.678Z,785.41
2019-05-16T07:40:30.816Z,785.52
2019-05-16T07:41:31.104Z,785.44
2019-05-16T07:42:30.742Z,785.44
2019-05-16T07:43:30.964Z,785.21
2019-05-16T07:44:30.935Z,785.00
2019-05-16T07:45:30.859Z,784.98
2019-05-16T07:46:31.526Z,785.04
2019-05-16T07:47:30.956Z,785.27
2019-05-16T07:48:31.842Z,785.46
2019-05-16T07:49:30.524Z,785.42
2019-05-16T07:50:30.201Z,785.37
2019-05-16T07:51:31.022Z,785.24
2019-05-16T07:52:35.409Z,785.04
2019-05-16T07:53:33.079Z,784.89
2019-05-16T07:54:34.128Z,784.90
2019-05-16T07:55:30.839Z,784.94
2019-05-16T07:56:30.918Z,784.82
2019-05-16T07:57:30.705Z,784.83
2019-05-16T07:58:31.317Z,784.85
2019-05-16T07:59:30.153Z,784.93
2019-05-16T08:00:48.458Z,784.87
2019-05-16T08:01:30.728Z,784.76
2019-05-16T08:02:31.294Z,784.69
2019-05-16T08:03:30.527Z,784.68
2019-05-16T08:04:30.361Z,784.76
2019-05-16T08:05:33.373Z,784.80
2019-05-16T08:06:31.006Z,784.85
2019-05-16T08:07:33.121Z,784.81
2019-05-16T08:08:31.442Z,784.83
2019-05-16T08:09:30.623Z,784.90
2019-05-16T08:10:38.144Z,784.86
2019-05-16T08:12:32.747Z,784.61
2019-05-16T08:13:30.835Z,784.47
2019-05-16T08:14:30.460Z,784.63
2019-05-16T08:15:30.453Z,784.64
2019-05-16T08:16:30.645Z,784.61
2019-05-16T08:17:31.479Z,784.45
2019-05-16T08:18:30.365Z,784.29
2019-05-16T08:19:30.590Z,784.11
2019-05-16T08:20:31.318Z,784.04
2019-05-16T08:21:30.863Z,784.02
2019-05-16T08:22:30.734Z,783.97
2019-05-16T08:23:30.500Z,784.00
2019-05-16T08:24:30.962Z,783.90
2019-05-16T08:25:31.407Z,783.96
2019-05-16T08:26:32.235Z,783.96
2019-05-16T08:28:30.851Z,784.15
2019-05-16T08:30:41.284Z,784.16
2019-05-16T08:31:42.930Z,784.00
2019-05-16T08:32:42.283Z,784.08
2019-05-16T08:33:41.581Z,784.18
2019-05-16T08:34:40.932Z,784.12
2019-05-16T08:35:41.433Z,783.99
2019-05-16T08:36:41.080Z,783.93
2019-05-16T08:37:46.055Z,783.84
2019-05-16T08:38:42.995Z,783.92
2019-05-16T08:39:41.307Z,783.81
2019-05-16T08:41:01.265Z,783.68
2019-05-16T08:41:42.450Z,783.77
2019-05-16T08:42:41.709Z,783.99
2019-05-16T08:43:41.470Z,784.02
2019-05-16T08:44:41.785Z,784.08
2019-05-16T08:45:41.813Z,784.17
2019-05-16T08:46:42.339Z,784.18
2019-05-16T08:47:42.326Z,784.05
2019-05-16T08:48:42.319Z,783.89
2019-05-16T08:49:42.232Z,783.83
2019-05-16T08:50:10.242Z,784.70
2019-05-16T08:50:11.346Z,784.11
2019-05-16T08:50:42.058Z,783.88
2019-05-16T08:51:42.479Z,783.78
2019-05-16T08:52:43.569Z,783.89
2019-05-16T08:53:43.384Z,783.91
2019-05-16T08:54:43.806Z,783.99
2019-05-16T08:55:43.339Z,784.03
2019-05-16T08:56:45.577Z,784.03
2019-05-16T08:57:40.962Z,784.11
2019-05-16T08:58:41.124Z,784.17
2019-05-16T08:59:41.103Z,784.12
2019-05-16T09:00:41.878Z,784.25
2019-05-16T09:02:42.173Z,784.42
2019-05-16T09:03:41.484Z,784.34
2019-05-16T09:04:44.146Z,784.44
2019-05-16T09:05:42.842Z,784.29
2019-05-16T09:06:42.427Z,784.29
2019-05-16T09:07:39.448Z,784.18
2019-05-16T09:08:39.431Z,784.44
2019-05-16T09:09:44.516Z,784.56
2019-05-16T09:10:54.597Z,784.56
2019-05-16T09:11:47.613Z,784.42
2019-05-16T09:12:39.406Z,784.51
2019-05-16T09:13:39.431Z,784.55
2019-05-16T09:14:39.370Z,784.55
2019-05-16T09:15:39.351Z,784.53
2019-05-16T09:16:39.355Z,784.44
2019-05-16T09:17:39.335Z,784.32
2019-05-16T09:18:30.895Z,784.21
2019-05-16T09:18:44.780Z,784.11
2019-05-16T09:19:39.343Z,784.12
2019-05-16T09:20:43.412Z,784.12
2019-05-16T09:21:39.341Z,784.13
2019-05-16T09:22:39.289Z,784.20
2019-05-16T09:23:39.340Z,784.28
2019-05-16T09:24:39.268Z,784.43
2019-05-16T09:25:39.285Z,784.36
2019-05-16T09:26:39.264Z,784.16
2019-05-16T09:27:39.350Z,784.10
2019-05-16T09:28:39.412Z,784.05
2019-05-16T09:29:41.105Z,784.12
2019-05-16T09:30:39.276Z,784.09
2019-05-16T09:31:39.235Z,783.91
2019-05-16T09:32:42.564Z,784.01
2019-05-16T09:33:39.157Z,783.96
2019-05-16T09:34:39.168Z,783.84
2019-05-16T09:35:39.227Z,783.83
2019-05-16T09:36:39.745Z,783.82
2019-05-16T09:37:39.121Z,783.61
2019-05-16T09:38:39.100Z,783.40
2019-05-16T09:39:39.086Z,783.21
2019-05-16T09:40:39.072Z,783.43
2019-05-16T09:41:54.311Z,783.50
2019-05-16T09:42:39.063Z,783.63
2019-05-16T09:43:39.308Z,783.77
2019-05-16T09:44:39.035Z,783.91
2019-05-16T09:45:39.019Z,784.04
2019-05-16T09:46:39.007Z,783.97
2019-05-16T09:47:39.311Z,784.01
2019-05-16T09:48:39.001Z,784.00
2019-05-16T09:49:39.041Z,784.02
2019-05-16T09:50:38.973Z,784.01
2019-05-16T09:51:38.959Z,784.15
2019-05-16T09:52:38.964Z,784.24
2019-05-16T09:53:38.933Z,784.25
2019-05-16T09:54:38.948Z,784.43
2019-05-16T09:55:38.947Z,784.38
2019-05-16T09:56:38.957Z,784.59
2019-05-16T09:57:39.212Z,784.58
2019-05-16T09:58:38.913Z,784.56
2019-05-16T09:59:38.884Z,784.54
2019-05-16T10:00:38.873Z,784.56
2019-05-16T10:01:38.890Z,784.56
2019-05-16T10:02:38.859Z,784.43
2019-05-16T10:03:38.820Z,784.38
2019-05-16T10:04:38.815Z,784.34
2019-05-16T10:05:38.809Z,784.32
2019-05-16T10:06:38.867Z,784.30
2019-05-16T10:07:39.191Z,784.26
2019-05-16T10:08:38.780Z,784.41
2019-05-16T10:09:44.961Z,784.48
2019-05-16T10:10:38.749Z,784.51
2019-05-16T10:11:42.025Z,784.57
2019-05-16T10:12:38.770Z,784.57
2019-05-16T10:13:38.722Z,784.50
2019-05-16T10:14:38.709Z,784.49
2019-05-16T10:15:38.698Z,784.40
2019-05-16T10:16:38.695Z,784.24
2019-05-16T10:17:38.689Z,784.10
2019-05-16T10:18:38.669Z,783.99
2019-05-16T10:19:38.668Z,783.98
2019-05-16T10:20:38.638Z,783.91
2019-05-16T10:21:38.627Z,783.84
2019-05-16T10:22:38.634Z,783.80
2019-05-16T10:23:38.613Z,783.74
2019-05-16T10:24:38.614Z,783.76
2019-05-16T10:25:38.672Z,783.68
2019-05-16T10:26:38.578Z,783.64
2019-05-16T10:27:40.160Z,783.68
2019-05-16T10:28:38.675Z,783.64
2019-05-16T10:29:38.531Z,783.73
2019-05-16T10:31:52.915Z,783.57
2019-05-16T10:32:49.047Z,783.36
2019-05-16T10:33:49.032Z,783.44
2019-05-16T10:34:48.994Z,783.52
2019-05-16T10:35:49.090Z,783.73
2019-05-16T10:36:49.059Z,783.81
2019-05-16T10:37:49.023Z,783.83
2019-05-16T10:38:49.221Z,783.77
2019-05-16T10:39:48.954Z,783.76
2019-05-16T10:40:48.954Z,783.85
2019-05-16T10:41:48.987Z,783.87
2019-05-16T10:42:48.957Z,783.86
2019-05-16T10:43:48.914Z,783.89
2019-05-16T10:44:48.905Z,783.81
2019-05-16T10:45:48.893Z,783.73
2019-05-16T10:46:48.870Z,783.66
2019-05-16T10:47:49.035Z,783.63
2019-05-16T10:48:48.986Z,783.63
2019-05-16T10:49:48.837Z,783.63
2019-05-16T10:50:48.848Z,783.71
2019-05-16T10:51:48.916Z,783.62
2019-05-16T10:53:13.299Z,783.62
2019-05-16T10:54:10.506Z,783.66
2019-05-16T10:54:58.155Z,783.63
2019-05-16T10:55:48.978Z,783.73
2019-05-16T10:56:49.031Z,783.71
2019-05-16T10:57:48.993Z,783.79
2019-05-16T10:59:21.531Z,783.95
2019-05-16T11:00:05.421Z,783.92
2019-05-16T11:01:10.961Z,783.89
2019-05-16T11:01:48.724Z,783.98
2019-05-16T11:02:48.774Z,784.05
2019-05-16T11:03:49.311Z,784.04
2019-05-16T11:04:59.986Z,784.14
2019-05-16T11:06:01.166Z,784.13
2019-05-16T11:06:48.716Z,784.09
2019-05-16T11:07:52.435Z,784.16
2019-05-16T11:08:48.679Z,784.10
2019-05-16T11:09:57.953Z,784.15
2019-05-16T11:10:48.664Z,784.15
2019-05-16T11:11:48.595Z,784.14
2019-05-16T11:12:55.003Z,784.09
2019-05-16T11:13:51.060Z,783.95
2019-05-16T11:14:48.558Z,783.83
2019-05-16T11:15:48.538Z,783.75
2019-05-16T11:16:48.547Z,783.70
2019-05-16T11:17:48.551Z,783.60
2019-05-16T11:18:48.532Z,783.50
2019-05-16T11:19:48.525Z,783.42
2019-05-16T11:20:49.395Z,783.32
2019-05-16T11:21:48.490Z,783.37
2019-05-16T11:22:48.482Z,783.24
2019-05-16T11:23:48.508Z,783.09
2019-05-16T11:24:48.447Z,782.99
2019-05-16T11:25:48.436Z,782.79
2019-05-16T11:26:48.426Z,782.80
2019-05-16T11:27:48.427Z,782.58
2019-05-16T11:28:49.268Z,782.39
2019-05-16T11:29:48.398Z,782.21
2019-05-16T11:30:49.866Z,782.24
2019-05-16T11:31:48.391Z,782.28
2019-05-16T11:32:48.374Z,782.37
2019-05-16T11:33:48.382Z,782.26
2019-05-16T11:34:48.374Z,782.06
2019-05-16T11:35:48.333Z,781.82
2019-05-16T11:36:48.324Z,781.63
2019-05-16T11:37:48.314Z,781.76
2019-05-16T11:38:48.311Z,781.99
2019-05-16T11:39:48.290Z,782.00
2019-05-16T11:40:48.266Z,781.92
2019-05-16T11:41:48.274Z,781.89
2019-05-16T11:43:03.941Z,782.13
2019-05-16T11:43:48.284Z,782.24
2019-05-16T11:44:48.250Z,782.24
2019-05-16T11:45:48.223Z,782.11
2019-05-16T11:46:49.096Z,782.04
2019-05-16T11:47:48.203Z,782.14
2019-05-16T11:48:48.878Z,782.30
2019-05-16T11:49:48.173Z,782.32
2019-05-16T11:50:48.280Z,782.47
2019-05-16T11:51:48.164Z,782.31
2019-05-16T11:52:48.144Z,782.14
2019-05-16T11:53:48.143Z,782.07
2019-05-16T11:54:48.110Z,782.08
2019-05-16T11:55:55.338Z,782.10
2019-05-16T11:56:48.090Z,782.18
2019-05-16T11:57:48.078Z,782.21
2019-05-16T11:58:48.101Z,782.18
2019-05-16T11:59:48.076Z,782.21
2019-05-16T12:00:48.569Z,782.25
2019-05-16T12:01:48.045Z,782.27
2019-05-16T12:02:48.115Z,782.14
2019-05-16T12:03:48.055Z,782.15
2019-05-16T12:04:48.032Z,782.36
2019-05-16T12:05:48.672Z,782.38
2019-05-16T12:06:47.998Z,782.43
2019-05-16T12:07:48.822Z,782.40
2019-05-16T12:08:48.000Z,782.26
2019-05-16T12:09:55.097Z,782.16
2019-05-16T12:10:47.944Z,782.34
2019-05-16T12:11:47.959Z,782.32
2019-05-16T12:12:47.933Z,782.36
2019-05-16T12:13:47.950Z,782.23
2019-05-16T12:14:47.901Z,781.98
2019-05-16T12:15:47.888Z,782.06
2019-05-16T12:16:48.529Z,782.17
2019-05-16T12:18:00.195Z,782.36
2019-05-16T12:18:48.004Z,782.42
2019-05-16T12:19:52.235Z,782.40
2019-05-16T12:20:47.851Z,782.25
2019-05-16T12:21:47.834Z,782.27
2019-05-16T12:22:47.810Z,782.24
2019-05-16T12:23:47.819Z,782.13
2019-05-16T12:24:47.920Z,782.16
2019-05-16T12:25:47.789Z,782.12
2019-05-16T12:26:48.098Z,782.26
2019-05-16T12:27:48.192Z,782.34
2019-05-16T12:28:47.772Z,782.50
2019-05-16T12:29:54.745Z,782.48
2019-05-16T12:30:47.723Z,782.58
